Vaughan, Texas
Current Conditions -  °F | °C
As of 2:35 AM on Wednesday 26 Nov 2014 (Local Time) from KINJ Reporting Station
Clear Clear  
Wind Chill: 38°   Ceiling: Unl
Heat Index: 41°   Visibility: 10mi
Dew Point: 30°   Wind: 5mph
Humidity: 65%   Direction: 160°SSE
Pressure: 30.1"   Gusts: NA
Location:  32.0499°N, 97.1039°W
Report Text: KINJ 260835Z AUTO 16004KT 10SM CLR 05/M01 A3010 RMK AO2 T00491011
Loading
Personal Weather Stations






























Interactive Weather Map New forecast layout! Learn more

10-Day Weather Forecast

Advertisements
Track Severe Weather on mobile